createdAt,value
2018-11-23T00:01:49.683Z,24.33
2018-11-23T00:04:18.146Z,23.33
2018-11-23T00:06:46.581Z,20.97
2018-11-23T00:09:15.005Z,24.40
2018-11-23T00:11:43.419Z,25.20
2018-11-23T00:14:11.856Z,24.83
2018-11-23T00:16:40.435Z,25.73
2018-11-23T00:19:08.887Z,24.27
2018-11-23T00:21:37.291Z,24.70
2018-11-23T00:24:05.959Z,23.93
2018-11-23T00:26:34.385Z,23.13
2018-11-23T00:29:02.794Z,25.33
2018-11-23T00:31:31.232Z,23.40
2018-11-23T00:33:59.635Z,23.30
2018-11-23T00:36:28.076Z,22.70
2018-11-23T00:38:57.155Z,22.67
2018-11-23T00:41:25.574Z,24.70
2018-11-23T00:43:53.957Z,25.27
2018-11-23T00:46:22.394Z,24.93
2018-11-23T00:48:50.899Z,22.67
2018-11-23T00:51:19.281Z,24.77
2018-11-23T00:53:47.697Z,23.60
2018-11-23T00:56:16.085Z,24.20
2018-11-23T00:58:44.585Z,25.17
2018-11-23T01:01:13.003Z,24.70
2018-11-23T01:03:41.434Z,23.37
2018-11-23T01:06:09.813Z,25.50
2018-11-23T01:08:38.231Z,24.77
2018-11-23T01:11:06.666Z,25.40
2018-11-23T01:13:35.093Z,24.23
2018-11-23T01:16:03.505Z,26.70
2018-11-23T01:18:31.885Z,26.73
2018-11-23T01:21:02.182Z,25.90
2018-11-23T01:23:30.580Z,26.03
2018-11-23T01:25:59.018Z,28.20
2018-11-23T01:28:27.456Z,25.60
2018-11-23T01:30:55.834Z,27.00
2018-11-23T01:33:24.226Z,24.60
2018-11-23T01:35:52.642Z,26.40
2018-11-23T01:38:21.022Z,27.10
2018-11-23T01:40:49.452Z,24.83
2018-11-23T01:43:17.833Z,26.37
2018-11-23T01:45:46.213Z,25.17
2018-11-23T01:48:14.641Z,24.47
2018-11-23T01:50:43.030Z,25.70
2018-11-23T01:53:11.438Z,24.63
2018-11-23T01:55:39.822Z,25.83
2018-11-23T01:58:08.237Z,24.90
2018-11-23T02:00:36.689Z,24.07
2018-11-23T02:03:05.380Z,27.03
2018-11-23T02:05:33.796Z,28.10
2018-11-23T02:08:02.193Z,26.67
2018-11-23T02:10:30.701Z,26.40
2018-11-23T02:12:59.105Z,25.87
2018-11-23T02:15:27.507Z,26.00
2018-11-23T02:17:55.902Z,26.57
2018-11-23T02:20:24.277Z,26.17
2018-11-23T02:22:53.399Z,25.87
2018-11-23T02:25:21.890Z,26.30
2018-11-23T02:27:50.302Z,25.07
2018-11-23T02:30:21.109Z,25.00
2018-11-23T02:32:49.557Z,26.33
2018-11-23T02:35:18.274Z,26.37
2018-11-23T02:37:46.710Z,26.47
2018-11-23T02:40:17.283Z,26.00
2018-11-23T02:42:45.945Z,26.00
2018-11-23T02:45:19.687Z,24.73
2018-11-23T02:47:48.650Z,26.53
2018-11-23T02:50:17.082Z,24.93
2018-11-23T02:52:45.817Z,25.47
2018-11-23T02:55:15.358Z,27.53
2018-11-23T02:57:43.766Z,26.03
2018-11-23T03:00:15.804Z,26.60
2018-11-23T03:02:44.357Z,24.80
2018-11-23T03:05:18.705Z,25.70
2018-11-23T03:07:47.093Z,25.80
2018-11-23T03:10:16.200Z,25.93
2018-11-23T03:12:45.470Z,26.90
2018-11-23T03:15:15.503Z,25.30
2018-11-23T03:17:44.685Z,24.97
2018-11-23T03:20:21.169Z,26.57
2018-11-23T03:22:49.553Z,26.00
2018-11-23T03:25:17.979Z,25.83
2018-11-23T03:27:46.385Z,23.93
2018-11-23T03:30:18.916Z,25.73
2018-11-23T03:32:48.465Z,26.03
2018-11-23T03:35:17.414Z,25.60
2018-11-23T03:37:46.230Z,24.57
2018-11-23T03:40:14.624Z,25.67
2018-11-23T03:42:43.026Z,24.70
2018-11-23T03:45:12.802Z,25.33
2018-11-23T03:47:41.875Z,25.03
2018-11-23T03:50:11.590Z,23.60
2018-11-23T03:52:40.380Z,24.60
2018-11-23T03:55:08.801Z,23.47
2018-11-23T03:57:37.218Z,27.40
2018-11-23T04:00:17.084Z,26.67
2018-11-23T04:02:40.198Z,26.47
2018-11-23T04:05:08.914Z,26.73
2018-11-23T04:07:37.317Z,28.53
2018-11-23T04:10:07.260Z,25.93
2018-11-23T04:12:35.662Z,26.97
2018-11-23T04:15:04.137Z,25.57
2018-11-23T04:17:32.522Z,25.10
2018-11-23T04:20:00.947Z,26.50
2018-11-23T04:22:29.356Z,26.63
2018-11-23T04:24:57.801Z,25.60
2018-11-23T04:27:26.181Z,26.10
2018-11-23T04:29:54.569Z,25.30
2018-11-23T04:32:22.958Z,26.83
2018-11-23T04:34:51.359Z,26.67
2018-11-23T04:37:19.733Z,23.90
2018-11-23T04:39:48.113Z,24.67
2018-11-23T04:42:16.513Z,25.73
2018-11-23T04:44:44.901Z,24.90
2018-11-23T04:47:13.353Z,25.83
2018-11-23T04:49:41.750Z,26.17
2018-11-23T04:52:10.146Z,23.80
2018-11-23T04:54:38.533Z,23.73
2018-11-23T04:57:06.958Z,25.10
2018-11-23T04:59:35.369Z,25.80
2018-11-23T05:02:03.773Z,20.33
2018-11-23T05:04:32.218Z,23.00
2018-11-23T05:07:00.612Z,23.17
2018-11-23T05:09:28.996Z,24.87
2018-11-23T05:11:57.404Z,24.37
2018-11-23T05:14:25.800Z,23.17
2018-11-23T05:16:54.211Z,24.33
2018-11-23T05:19:22.608Z,25.07
2018-11-23T05:21:51.001Z,24.80
2018-11-23T05:24:19.953Z,23.30
2018-11-23T05:26:48.333Z,24.50
2018-11-23T05:29:16.737Z,26.00
2018-11-23T05:31:45.320Z,24.73
2018-11-23T05:34:13.720Z,23.60
2018-11-23T05:36:43.239Z,23.60
2018-11-23T05:39:11.892Z,26.60
2018-11-23T05:41:40.313Z,22.73
2018-11-23T05:44:08.773Z,25.43
2018-11-23T05:46:37.233Z,26.30
2018-11-23T05:49:05.982Z,24.83
2018-11-23T05:51:34.385Z,24.83
2018-11-23T05:54:02.872Z,24.80
2018-11-23T05:56:31.298Z,26.30
2018-11-23T05:58:59.690Z,25.63
2018-11-23T06:01:28.071Z,25.30
2018-11-23T06:03:56.482Z,30.65
2018-11-23T06:06:25.888Z,27.43
2018-11-23T06:08:53.314Z,25.53
2018-11-23T06:11:21.697Z,25.97
2018-11-23T06:13:50.156Z,26.20
2018-11-23T06:16:18.542Z,24.90
2018-11-23T06:18:47.873Z,24.33
2018-11-23T06:21:16.277Z,24.70
2018-11-23T06:23:44.676Z,24.27
2018-11-23T06:26:23.357Z,25.37
2018-11-23T06:28:51.945Z,25.57
2018-11-23T06:31:20.362Z,24.20
2018-11-23T06:33:49.393Z,24.80
2018-11-23T06:36:17.789Z,23.60
2018-11-23T06:38:46.213Z,24.47
2018-11-23T06:41:14.622Z,22.17
2018-11-23T06:43:43.013Z,20.93
2018-11-23T06:46:12.273Z,24.40
2018-11-23T06:48:40.682Z,24.70
2018-11-23T06:51:09.397Z,24.03
2018-11-23T06:53:38.082Z,25.27
2018-11-23T06:56:06.853Z,22.10
2018-11-23T06:58:35.332Z,24.30
2018-11-23T07:01:03.766Z,26.00
2018-11-23T07:03:32.317Z,23.87
2018-11-23T07:06:00.739Z,24.20
2018-11-23T07:08:29.160Z,23.60
2018-11-23T07:10:59.498Z,23.87
2018-11-23T07:13:28.989Z,26.57
2018-11-23T07:15:57.410Z,25.93
2018-11-23T07:18:25.872Z,26.53
2018-11-23T07:20:54.241Z,25.93
2018-11-23T07:23:22.693Z,25.03
2018-11-23T07:25:51.234Z,24.17
2018-11-23T07:28:19.646Z,22.50
2018-11-23T07:30:48.106Z,22.47
2018-11-23T07:33:16.656Z,22.87
2018-11-23T07:35:45.053Z,23.40
2018-11-23T07:38:13.458Z,22.60
2018-11-23T07:40:53.942Z,24.20
2018-11-23T07:43:22.360Z,21.57
2018-11-23T07:45:50.819Z,21.37
2018-11-23T07:48:19.194Z,20.20
2018-11-23T07:50:47.637Z,21.20
2018-11-23T07:53:16.022Z,23.37
2018-11-23T07:55:44.445Z,21.47
2018-11-23T07:58:12.879Z,21.97
2018-11-23T08:00:41.309Z,23.43
2018-11-23T08:03:09.707Z,22.00
2018-11-23T08:05:38.121Z,22.27
2018-11-23T08:08:06.931Z,21.93
2018-11-23T08:10:34.537Z,23.63
2018-11-23T08:13:02.997Z,21.80
2018-11-23T08:15:32.054Z,21.27
2018-11-23T08:18:00.576Z,21.00
2018-11-23T08:20:28.984Z,20.67
2018-11-23T08:22:57.434Z,20.30
2018-11-23T08:25:26.550Z,18.80
2018-11-23T08:27:56.161Z,21.30
2018-11-23T08:30:28.057Z,19.57
2018-11-23T08:32:56.945Z,22.43
2018-11-23T08:35:25.355Z,20.73
2018-11-23T08:37:53.757Z,22.40
2018-11-23T08:40:23.695Z,22.27
2018-11-23T08:42:52.686Z,21.67
2018-11-23T08:45:22.591Z,20.70
2018-11-23T08:47:51.137Z,20.77
2018-11-23T08:50:22.285Z,21.40
2018-11-23T08:52:51.520Z,22.17
2018-11-23T08:55:20.410Z,22.40
2018-11-23T08:57:48.893Z,20.90
2018-11-23T09:00:21.418Z,20.60
2018-11-23T09:02:51.161Z,22.70
2018-11-23T09:05:19.673Z,21.23
2018-11-23T09:07:49.255Z,21.30
2018-11-23T09:10:19.266Z,21.80
2018-11-23T09:12:49.566Z,19.90
2018-11-23T09:15:18.050Z,21.50
2018-11-23T09:17:46.644Z,20.90
2018-11-23T09:20:15.945Z,23.63
2018-11-23T09:22:44.390Z,21.87
2018-11-23T09:25:15.377Z,23.50
2018-11-23T09:27:43.777Z,21.57
2018-11-23T09:30:18.991Z,22.50
2018-11-23T09:32:48.041Z,23.10
2018-11-23T09:35:16.441Z,23.70
2018-11-23T09:37:45.254Z,23.00
2018-11-23T09:40:18.668Z,21.80
2018-11-23T09:42:47.442Z,22.47
2018-11-23T09:45:17.846Z,23.30
2018-11-23T09:47:47.253Z,23.40
2018-11-23T09:50:17.275Z,22.73
2018-11-23T09:52:46.617Z,22.33
2018-11-23T09:55:15.166Z,24.50
2018-11-23T09:57:43.851Z,22.33
2018-11-23T10:00:15.203Z,24.10
2018-11-23T10:02:44.280Z,22.83
2018-11-23T10:05:13.700Z,22.10
2018-11-23T10:07:43.386Z,22.87
2018-11-23T10:10:12.585Z,23.73
2018-11-23T10:12:41.481Z,23.40
2018-11-23T10:15:11.377Z,26.27
2018-11-23T10:17:39.994Z,23.77
2018-11-23T10:20:11.651Z,22.80
2018-11-23T10:22:40.086Z,22.00
2018-11-23T10:25:10.500Z,22.70
2018-11-23T10:27:39.427Z,23.37
2018-11-23T10:30:10.325Z,24.10
2018-11-23T10:32:38.749Z,21.20
2018-11-23T10:35:08.366Z,23.63
2018-11-23T10:37:37.139Z,22.63
2018-11-23T10:40:08.430Z,24.13
2018-11-23T10:42:37.694Z,23.63
2018-11-23T10:45:14.145Z,24.43
2018-11-23T10:47:42.622Z,24.40
2018-11-23T10:50:14.792Z,24.17
2018-11-23T10:52:43.374Z,24.37
2018-11-23T10:55:14.342Z,23.97
2018-11-23T10:57:42.793Z,22.67
2018-11-23T11:00:20.634Z,22.93
2018-11-23T11:02:54.969Z,23.27
2018-11-23T11:05:28.666Z,24.50
2018-11-23T11:07:58.509Z,24.00
2018-11-23T11:10:27.017Z,23.97
2018-11-23T11:12:55.433Z,22.90
2018-11-23T11:15:23.981Z,22.40
2018-11-23T11:17:52.457Z,22.27
2018-11-23T11:20:21.242Z,23.33
2018-11-23T11:22:49.821Z,23.70
2018-11-23T11:25:18.234Z,24.00
2018-11-23T11:27:46.653Z,23.07
2018-11-23T11:30:16.797Z,22.10
2018-11-23T11:32:45.790Z,23.70
2018-11-23T11:35:14.369Z,24.40
2018-11-23T11:37:43.873Z,24.07
2018-11-23T11:40:13.709Z,23.23
2018-11-23T11:42:42.701Z,21.90
2018-11-23T11:45:12.995Z,23.50
2018-11-23T11:47:42.130Z,26.00
2018-11-23T11:50:11.485Z,22.90
2018-11-23T11:52:41.314Z,22.70
2018-11-23T11:55:12.057Z,24.57
2018-11-23T11:57:40.496Z,23.57
2018-11-23T12:00:11.722Z,23.57
2018-11-23T12:02:40.321Z,22.40
2018-11-23T12:05:10.277Z,24.40
2018-11-23T12:07:38.729Z,25.20
2018-11-23T12:10:09.589Z,23.73
2018-11-23T12:12:38.297Z,22.77
2018-11-23T12:15:07.969Z,23.03
2018-11-23T12:17:36.370Z,23.00
2018-11-23T12:20:06.878Z,23.73
2018-11-23T12:22:35.265Z,24.57
2018-11-23T12:25:03.951Z,24.07
2018-11-23T12:27:32.484Z,22.87
2018-11-23T12:30:00.893Z,21.90
2018-11-23T12:32:29.509Z,24.00
2018-11-23T12:34:57.909Z,22.03
2018-11-23T12:37:26.349Z,23.03
2018-11-23T12:39:54.942Z,20.83
2018-11-23T12:42:23.527Z,21.07
2018-11-23T12:44:51.942Z,21.57
2018-11-23T12:47:20.569Z,21.90
2018-11-23T12:49:48.992Z,24.07
2018-11-23T12:52:17.441Z,22.00
2018-11-23T12:54:45.851Z,21.90
2018-11-23T12:57:14.390Z,22.03
2018-11-23T12:59:42.800Z,21.30
2018-11-23T13:02:11.224Z,21.73
2018-11-23T13:04:39.665Z,22.70
2018-11-23T13:07:08.738Z,21.87
2018-11-23T13:09:37.868Z,22.07
2018-11-23T13:12:06.313Z,23.70
2018-11-23T13:14:34.718Z,21.70
2018-11-23T13:17:03.142Z,21.07
2018-11-23T13:19:31.549Z,23.90
2018-11-23T13:21:59.943Z,22.53
2018-11-23T13:24:28.337Z,22.97
2018-11-23T13:26:56.745Z,21.80
2018-11-23T13:29:25.189Z,22.80
2018-11-23T13:31:53.609Z,20.73
2018-11-23T13:34:22.027Z,20.97
2018-11-23T13:36:50.445Z,20.57
2018-11-23T13:39:18.949Z,21.60
2018-11-23T13:41:47.415Z,21.93
2018-11-23T13:44:16.393Z,21.33
2018-11-23T13:46:44.797Z,21.83
2018-11-23T13:49:13.211Z,20.97
2018-11-23T13:51:41.682Z,19.63
2018-11-23T13:54:10.109Z,22.77
2018-11-23T13:56:38.557Z,21.13
2018-11-23T13:59:06.973Z,21.20
2018-11-23T14:01:35.463Z,20.43
2018-11-23T14:04:03.912Z,22.67
2018-11-23T14:06:32.487Z,21.13
2018-11-23T14:09:00.876Z,19.40
2018-11-23T14:11:29.278Z,20.77
2018-11-23T14:13:57.685Z,19.20
2018-11-23T14:16:26.089Z,20.77
2018-11-23T14:18:54.529Z,21.10
2018-11-23T14:21:23.050Z,18.83
2018-11-23T14:23:51.650Z,18.73
2018-11-23T14:26:20.061Z,19.50
2018-11-23T14:28:48.549Z,19.80
2018-11-23T14:31:17.002Z,19.10
2018-11-23T14:33:45.493Z,17.97
2018-11-23T14:36:13.953Z,18.40
2018-11-23T14:38:42.370Z,16.37
2018-11-23T14:41:10.810Z,16.37
2018-11-23T14:43:39.309Z,17.53
2018-11-23T14:46:07.766Z,17.13
2018-11-23T14:48:36.209Z,15.97
2018-11-23T14:51:04.867Z,17.43
2018-11-23T14:53:33.341Z,17.23
2018-11-23T14:56:01.778Z,18.10
2018-11-23T14:58:30.265Z,18.53
2018-11-23T15:00:58.693Z,17.83
2018-11-23T15:03:27.278Z,18.00
2018-11-23T15:05:55.706Z,18.33
2018-11-23T15:08:24.162Z,17.30
2018-11-23T15:10:52.724Z,16.90
2018-11-23T15:13:21.131Z,19.07
2018-11-23T15:15:49.585Z,17.07
2018-11-23T15:18:18.038Z,17.37
2018-11-23T15:20:47.360Z,16.10
2018-11-23T15:23:19.189Z,18.33
2018-11-23T15:25:47.612Z,16.93
2018-11-23T15:28:16.478Z,18.87
2018-11-23T15:30:46.104Z,17.90
2018-11-23T15:33:16.033Z,18.43
2018-11-23T15:35:45.321Z,17.77
2018-11-23T15:38:18.607Z,18.27
2018-11-23T15:40:47.407Z,19.77
2018-11-23T15:43:17.009Z,17.80
2018-11-23T15:45:45.458Z,17.70
2018-11-23T15:48:13.920Z,20.43
2018-11-23T15:50:43.059Z,20.83
2018-11-23T15:53:13.066Z,21.10
2018-11-23T15:55:41.938Z,20.63
2018-11-23T15:58:12.013Z,20.73
2018-11-23T16:00:42.969Z,20.03
2018-11-23T16:03:12.302Z,19.17
2018-11-23T16:05:40.873Z,20.57
2018-11-23T16:08:13.833Z,19.87
2018-11-23T16:10:42.279Z,19.20
2018-11-23T16:13:11.844Z,19.50
2018-11-23T16:15:40.286Z,18.97
2018-11-23T16:18:09.325Z,19.10
2018-11-23T16:20:39.981Z,20.70
2018-11-23T16:23:10.221Z,19.43
2018-11-23T16:25:38.992Z,20.63
2018-11-23T16:28:08.660Z,20.13
2018-11-23T16:30:38.596Z,18.80
2018-11-23T16:33:08.713Z,19.87
2018-11-23T16:35:38.275Z,19.77
2018-11-23T16:38:08.716Z,20.43
2018-11-23T16:40:39.797Z,22.17
2018-11-23T16:43:09.488Z,20.40
2018-11-23T16:45:38.670Z,19.27
2018-11-23T16:48:08.918Z,18.50
2018-11-23T16:50:37.405Z,19.40
2018-11-23T16:53:06.286Z,20.70
2018-11-23T16:55:35.125Z,21.40
2018-11-23T16:58:04.975Z,20.03
2018-11-23T17:00:34.781Z,19.17
2018-11-23T17:03:04.804Z,18.60
2018-11-23T17:05:35.123Z,20.23
2018-11-23T17:08:03.600Z,20.23
2018-11-23T17:10:32.082Z,20.07
2018-11-23T17:13:00.557Z,20.40
2018-11-23T17:15:29.598Z,21.93
2018-11-23T17:17:58.135Z,20.63
2018-11-23T17:20:28.063Z,24.80
2018-11-23T17:22:58.035Z,25.17
2018-11-23T17:25:27.274Z,25.70
2018-11-23T17:27:57.492Z,25.63
2018-11-23T17:30:28.053Z,27.03
2018-11-23T17:32:56.729Z,27.23
2018-11-23T17:35:25.718Z,24.97
2018-11-23T17:37:54.234Z,22.27
2018-11-23T17:40:23.901Z,23.23
2018-11-23T17:42:52.787Z,25.03
2018-11-23T17:45:23.818Z,22.17
2018-11-23T17:47:53.001Z,23.50
2018-11-23T17:50:25.073Z,23.07
2018-11-23T17:52:53.770Z,24.13
2018-11-23T17:55:22.266Z,25.50
2018-11-23T17:57:51.865Z,25.07
2018-11-23T18:00:22.012Z,25.43
2018-11-23T18:02:51.403Z,27.47
2018-11-23T18:05:20.895Z,29.33
2018-11-23T18:07:50.484Z,29.40
2018-11-23T18:10:21.244Z,27.80
2018-11-23T18:12:57.166Z,28.73
2018-11-23T18:15:27.736Z,29.20
2018-11-23T18:17:57.296Z,30.37
2018-11-23T18:20:27.403Z,30.93
2018-11-23T18:22:56.618Z,31.13
2018-11-23T18:25:29.614Z,30.20
2018-11-23T18:28:00.237Z,28.33
2018-11-23T18:30:30.117Z,31.33
2018-11-23T18:32:58.821Z,30.23
2018-11-23T18:35:27.325Z,29.27
2018-11-23T18:37:56.411Z,30.30
2018-11-23T18:40:24.986Z,28.97
2018-11-23T18:42:54.821Z,30.83
2018-11-23T18:45:23.351Z,30.40
2018-11-23T18:47:51.890Z,29.93
2018-11-23T18:50:20.392Z,29.30
2018-11-23T18:52:49.653Z,28.20
2018-11-23T18:55:18.515Z,28.07
2018-11-23T18:57:46.593Z,29.33
2018-11-23T19:00:16.136Z,27.90
2018-11-23T19:02:45.750Z,29.13
2018-11-23T19:05:22.542Z,29.60
2018-11-23T19:07:51.021Z,31.77
2018-11-23T19:10:19.497Z,30.93
2018-11-23T19:12:48.038Z,30.93
2018-11-23T19:15:25.136Z,30.50
2018-11-23T19:17:46.302Z,31.07
2018-11-23T19:20:16.973Z,30.70
2018-11-23T19:22:46.543Z,30.50
2018-11-23T19:25:15.022Z,31.80
2018-11-23T19:27:43.489Z,31.07
2018-11-23T19:30:14.281Z,32.47
2018-11-23T19:32:42.758Z,31.37
2018-11-23T19:35:11.201Z,30.80
2018-11-23T19:37:40.422Z,31.47
2018-11-23T19:40:12.221Z,29.37
2018-11-23T19:42:41.248Z,30.03
2018-11-23T19:45:11.995Z,28.87
2018-11-23T19:47:40.479Z,29.93
2018-11-23T19:50:11.647Z,29.57
2018-11-23T19:52:40.509Z,30.30
2018-11-23T19:55:09.926Z,30.03
2018-11-23T19:57:39.704Z,32.50
2018-11-23T20:00:17.018Z,31.50
2018-11-23T20:02:46.069Z,27.87
2018-11-23T20:05:14.573Z,32.30
2018-11-23T20:07:43.401Z,30.33
2018-11-23T20:10:15.121Z,31.90
2018-11-23T20:12:44.114Z,29.90
2018-11-23T20:15:14.886Z,31.27
2018-11-23T20:17:43.474Z,29.73
2018-11-23T20:20:13.215Z,30.43
2018-11-23T20:22:42.397Z,29.80
2018-11-23T20:25:14.948Z,30.50
2018-11-23T20:27:43.702Z,32.67
2018-11-23T20:30:16.227Z,30.07
2018-11-23T20:32:44.833Z,30.30
2018-11-23T20:35:14.572Z,28.70
2018-11-23T20:37:43.009Z,29.87
2018-11-23T20:40:21.418Z,29.73
2018-11-23T20:42:49.842Z,28.57
2018-11-23T20:45:18.347Z,27.40
2018-11-23T20:47:46.801Z,27.80
2018-11-23T20:50:16.418Z,26.47
2018-11-23T20:52:45.011Z,26.13
2018-11-23T20:55:17.481Z,27.20
2018-11-23T20:57:45.948Z,24.40
2018-11-23T21:00:15.477Z,24.93
2018-11-23T21:02:44.412Z,26.17
2018-11-23T21:05:14.160Z,25.80
2018-11-23T21:07:42.606Z,23.80
2018-11-23T21:10:19.927Z,24.13
2018-11-23T21:12:41.130Z,24.73
2018-11-23T21:15:18.125Z,23.67
2018-11-23T21:17:46.683Z,23.73
2018-11-23T21:20:15.159Z,24.13
2018-11-23T21:22:43.589Z,24.87
2018-11-23T21:25:12.290Z,24.00
2018-11-23T21:27:40.745Z,24.10
2018-11-23T21:30:14.390Z,25.20
2018-11-23T21:32:42.849Z,25.20
2018-11-23T21:35:11.878Z,24.33
2018-11-23T21:37:40.325Z,25.10
2018-11-23T21:40:11.766Z,25.47
2018-11-23T21:42:40.265Z,25.37
2018-11-23T21:45:11.270Z,25.70
2018-11-23T21:47:39.799Z,24.70
2018-11-23T21:50:12.049Z,25.47
2018-11-23T21:52:40.538Z,25.47
2018-11-23T21:55:14.054Z,24.00
2018-11-23T21:57:42.486Z,24.00
2018-11-23T22:00:12.462Z,24.73
2018-11-23T22:02:41.441Z,23.03
2018-11-23T22:05:10.268Z,26.93
2018-11-23T22:07:38.734Z,25.70
2018-11-23T22:10:12.107Z,24.10
2018-11-23T22:12:40.771Z,24.20
2018-11-23T22:15:10.942Z,22.83
2018-11-23T22:17:39.425Z,22.57
2018-11-23T22:20:16.129Z,21.27
2018-11-23T22:22:44.574Z,21.40
2018-11-23T22:25:14.857Z,23.83
2018-11-23T22:27:43.576Z,21.50
2018-11-23T22:30:19.361Z,21.67
2018-11-23T22:32:47.772Z,20.87
2018-11-23T22:35:16.224Z,23.97
2018-11-23T22:37:44.697Z,21.80
2018-11-23T22:40:14.491Z,23.37
2018-11-23T22:42:44.365Z,23.10
2018-11-23T22:45:13.845Z,25.50
2018-11-23T22:47:42.257Z,22.80
2018-11-23T22:50:18.131Z,23.37
2018-11-23T22:52:47.715Z,25.00
2018-11-23T22:55:15.821Z,24.80
2018-11-23T22:57:44.266Z,23.73
2018-11-23T23:00:23.862Z,23.87
2018-11-23T23:02:52.309Z,25.70
2018-11-23T23:05:21.898Z,25.40
2018-11-23T23:07:50.502Z,25.10
2018-11-23T23:10:18.961Z,24.30
2018-11-23T23:12:47.742Z,25.90
2018-11-23T23:15:16.486Z,25.57
2018-11-23T23:17:45.116Z,24.60
2018-11-23T23:20:16.023Z,24.73
2018-11-23T23:22:44.476Z,23.33
2018-11-23T23:25:13.909Z,24.20
2018-11-23T23:27:42.298Z,24.07
2018-11-23T23:30:12.879Z,25.00
2018-11-23T23:32:41.371Z,26.10
2018-11-23T23:35:10.813Z,24.70
2018-11-23T23:37:39.611Z,23.83
2018-11-23T23:40:13.236Z,23.33
2018-11-23T23:42:41.629Z,23.80
2018-11-23T23:45:13.180Z,23.77
2018-11-23T23:47:41.583Z,23.83
2018-11-23T23:50:21.705Z,24.33
2018-11-23T23:52:50.885Z,24.13
2018-11-23T23:55:19.775Z,26.60
2018-11-23T23:57:48.729Z,25.93
